Time;durP1;ratioP1;P1;durP2;ratioP2;P2;SDS_P1;SDS_P2;PMS_P1;PMS_P2;Temp;Humidity;BMP_temperature;BMP_pressure;BME280_temperature;BME280_humidity;BME280_pressure;Samples;Min_cycle;Max_cycle;Signal;HPM_P1;HPM_P2
2023/01/12 00:01:42;;;;;;;21.15;3.10;;;7.30;99.90;;;;;;5102424;28;20042;-61
2023/01/12 00:04:11;;;;;;;20.73;4.20;;;7.30;99.90;;;;;;5098941;28;20091;-61
2023/01/12 00:06:37;;;;;;;18.73;3.25;;;7.40;99.90;;;;;;5101873;28;20044;-61
2023/01/12 00:09:05;;;;;;;23.23;4.00;;;7.30;99.90;;;;;;5100432;28;20103;-60
2023/01/12 00:11:31;;;;;;;19.17;3.33;;;7.30;99.90;;;;;;5100474;28;20044;-60
2023/01/12 00:13:57;;;;;;;19.52;3.35;;;7.30;99.90;;;;;;5101699;28;20036;-60
2023/01/12 00:16:36;;;;;;;25.48;4.05;;;7.30;99.90;;;;;;5099098;28;20047;-59
2023/01/12 00:19:16;;;;;;;22.40;4.15;;;7.40;99.90;;;;;;5101873;28;20050;-59
2023/01/12 00:24:31;;;;;;;22.40;3.35;;;7.80;99.90;;;;;;5099574;28;20076;-59
2023/01/12 00:26:58;;;;;;;24.40;3.35;;;7.60;99.90;;;;;;5101705;28;20056;-59
2023/01/12 00:29:25;;;;;;;20.55;3.58;;;7.70;99.90;;;;;;5098574;28;20054;-60
2023/01/12 00:31:52;;;;;;;18.65;3.35;;;7.60;99.90;;;;;;5101326;28;20040;-59
2023/01/12 00:34:18;;;;;;;18.55;2.97;;;7.60;99.90;;;;;;5098738;28;20036;-60
2023/01/12 00:36:45;;;;;;;19.27;3.45;;;7.50;99.90;;;;;;5101316;28;20060;-60
2023/01/12 00:39:12;;;;;;;16.73;2.97;;;7.50;99.90;;;;;;5100780;28;20352;-61
2023/01/12 00:47:08;;;;;;;19.48;2.97;;;7.40;99.90;;;;;;5098621;28;20518;-61
2023/01/12 00:49:35;;;;;;;19.63;3.22;;;7.30;99.90;;;;;;5101058;28;20040;-60
2023/01/12 00:52:01;;;;;;;19.77;3.55;;;7.50;99.90;;;;;;5100288;28;20044;-59
2023/01/12 00:54:26;;;;;;;22.17;3.70;;;7.50;99.90;;;;;;5092120;28;20399;-60
2023/01/12 00:56:52;;;;;;;22.25;3.90;;;7.50;99.90;;;;;;5080871;28;20126;-59
2023/01/12 00:59:18;;;;;;;20.98;3.22;;;7.50;99.90;;;;;;5078070;28;20053;-59
2023/01/12 01:01:43;;;;;;;25.60;4.20;;;7.40;99.90;;;;;;5080918;28;20071;-60
2023/01/12 01:04:09;;;;;;;22.70;3.95;;;7.40;99.90;;;;;;5078003;28;20040;-59
2023/01/12 01:06:38;;;;;;;23.58;3.33;;;7.40;99.90;;;;;;5080720;28;20032;-59
2023/01/12 01:09:04;;;;;;;21.77;3.72;;;7.50;99.90;;;;;;5061597;28;20515;-59
2023/01/12 01:11:30;;;;;;;27.95;4.70;;;7.50;99.90;;;;;;5078295;28;20024;-59
2023/01/12 01:13:56;;;;;;;20.65;3.40;;;7.70;99.90;;;;;;5080407;28;20045;-58
2023/01/12 01:16:22;;;;;;;22.13;3.97;;;7.70;99.90;;;;;;5077657;28;20044;-58
2023/01/12 01:18:47;;;;;;;21.35;3.53;;;7.60;99.90;;;;;;5080645;28;20048;-59
2023/01/12 01:21:13;;;;;;;19.20;4.10;;;7.60;99.90;;;;;;5077692;28;20048;-59
2023/01/12 01:23:40;;;;;;;19.42;2.80;;;7.70;99.90;;;;;;5080424;28;20055;-60
2023/01/12 01:26:15;;;;;;;23.73;4.28;;;7.70;99.90;;;;;;5078830;28;20056;-58
2023/01/12 01:28:41;;;;;;;16.60;3.22;;;7.70;99.90;;;;;;5078706;28;20048;-59
2023/01/12 01:31:13;;;;;;;15.00;3.53;;;7.60;99.90;;;;;;5080428;28;20058;-59
2023/01/12 01:33:39;;;;;;;20.27;3.25;;;7.60;99.90;;;;;;5077617;28;20075;-58
2023/01/12 01:36:06;;;;;;;24.92;4.15;;;7.70;99.90;;;;;;5080491;28;20071;-58
2023/01/12 01:38:32;;;;;;;20.90;3.47;;;7.70;99.90;;;;;;5077636;28;20075;-58
2023/01/12 01:40:58;;;;;;;19.33;3.30;;;7.80;99.90;;;;;;5080167;28;20086;-58
2023/01/12 01:43:25;;;;;;;20.70;3.35;;;7.90;99.90;;;;;;5060971;28;20048;-58
2023/01/12 01:46:13;;;;;;;22.55;3.67;;;7.90;99.90;;;;;;5078347;28;20040;-58
2023/01/12 01:48:39;;;;;;;17.55;2.97;;;7.80;99.90;;;;;;5080413;28;20059;-58
2023/01/12 01:51:12;;;;;;;23.83;3.72;;;7.70;99.90;;;;;;5077229;28;20037;-58
2023/01/12 01:53:42;;;;;;;25.90;4.55;;;7.60;99.90;;;;;;5062394;28;20052;-58
2023/01/12 01:56:13;;;;;;;20.15;3.70;;;7.70;99.90;;;;;;5098897;28;20040;-58
2023/01/12 01:58:53;;;;;;;20.05;4.00;;;7.70;99.90;;;;;;5098933;28;20036;-58
2023/01/12 02:01:18;;;;;;;20.17;3.80;;;7.70;99.90;;;;;;5100492;28;20048;-57
2023/01/12 02:03:45;;;;;;;17.30;3.22;;;7.50;99.90;;;;;;5097410;28;20119;-58
2023/01/12 02:06:11;;;;;;;21.23;3.13;;;7.60;99.90;;;;;;5100420;28;20040;-58
2023/01/12 02:09:00;;;;;;;18.38;2.63;;;7.60;99.90;;;;;;5097754;28;20468;-57
2023/01/12 02:17:23;;;;;;;22.13;4.03;;;7.70;99.90;;;;;;5097360;28;20048;-59
2023/01/12 02:20:17;;;;;;;17.73;3.08;;;7.80;99.90;;;;;;5099353;28;20055;-59
2023/01/12 02:22:49;;;;;;;18.60;4.30;;;7.70;99.90;;;;;;5100973;28;20391;-59
2023/01/12 02:25:26;;;;;;;21.20;3.30;;;7.60;99.90;;;;;;5100913;28;20059;-60
2023/01/12 02:27:55;;;;;;;16.95;3.03;;;7.60;99.90;;;;;;5103897;28;20048;-60
2023/01/12 02:30:56;;;;;;;25.27;4.72;;;7.80;99.90;;;;;;5102376;28;20044;-59
2023/01/12 02:33:36;;;;;;;26.65;4.28;;;7.70;99.90;;;;;;5015087;28;20044;-59
2023/01/12 02:36:40;;;;;;;19.55;3.88;;;7.80;99.90;;;;;;5104100;28;20048;-59
2023/01/12 02:39:25;;;;;;;25.17;4.22;;;7.70;99.90;;;;;;5051072;28;20080;-59
2023/01/12 02:45:04;;;;;;;22.08;3.97;;;7.80;99.90;;;;;;5103568;28;20060;-59
2023/01/12 02:47:54;;;;;;;26.50;4.40;;;8.00;99.90;;;;;;5101737;28;20077;-59
2023/01/12 02:50:32;;;;;;;28.17;4.57;;;8.00;99.90;;;;;;5101200;28;20051;-60
2023/01/12 02:53:05;;;;;;;21.58;3.63;;;7.80;99.90;;;;;;5103510;28;20107;-59
2023/01/12 02:55:33;;;;;;;22.92;4.53;;;8.00;99.90;;;;;;5084323;28;20096;-60
2023/01/12 02:57:59;;;;;;;24.85;4.72;;;8.00;99.90;;;;;;5082885;28;20068;-60
2023/01/12 03:00:25;;;;;;;19.63;3.53;;;7.90;99.90;;;;;;5081940;28;20048;-60
2023/01/12 03:02:51;;;;;;;26.08;4.57;;;7.80;99.90;;;;;;5081392;28;20492;-60
2023/01/12 03:05:17;;;;;;;23.10;3.28;;;7.90;99.90;;;;;;5082738;28;20094;-59
2023/01/12 03:07:50;;;;;;;26.83;4.13;;;7.80;99.90;;;;;;5062024;28;20048;-60
2023/01/12 03:10:28;;;;;;;20.35;4.50;;;7.70;99.90;;;;;;5082973;28;20123;-60
2023/01/12 03:12:56;;;;;;;23.50;4.10;;;7.70;99.90;;;;;;5079938;28;20048;-60
2023/01/12 03:15:23;;;;;;;20.10;3.47;;;7.80;99.90;;;;;;5082415;28;20051;-60
2023/01/12 03:18:19;;;;;;;27.40;4.55;;;7.80;99.90;;;;;;5064120;28;20500;-59
2023/01/12 03:21:06;;;;;;;26.60;3.97;;;7.80;99.90;;;;;;5071431;28;20053;-59
2023/01/12 03:23:45;;;;;;;28.35;4.82;;;7.90;99.90;;;;;;5064573;28;20056;-59
2023/01/12 03:26:14;;;;;;;27.58;3.95;;;8.00;99.90;;;;;;5081338;28;20049;-59
2023/01/12 03:28:42;;;;;;;23.27;5.15;;;8.00;99.90;;;;;;5080588;28;20032;-59
2023/01/12 03:31:11;;;;;;;24.17;4.65;;;8.20;99.90;;;;;;5082481;28;20037;-60
2023/01/12 03:33:42;;;;;;;26.40;3.95;;;8.00;99.90;;;;;;5079071;28;20048;-60
2023/01/12 03:36:37;;;;;;;22.73;3.72;;;8.10;99.90;;;;;;5082674;28;20040;-60
2023/01/12 03:39:20;;;;;;;20.52;4.05;;;7.90;99.90;;;;;;5081021;28;20048;-60
2023/01/12 03:42:08;;;;;;;18.08;3.30;;;8.20;99.90;;;;;;5079226;28;20051;-59
2023/01/12 03:44:43;;;;;;;21.30;3.60;;;7.90;99.90;;;;;;5082288;28;20050;-60
2023/01/12 03:47:16;;;;;;;22.40;3.78;;;8.00;99.90;;;;;;5079871;28;20055;-60
2023/01/12 03:49:49;;;;;;;17.33;3.63;;;8.00;99.90;;;;;;5081534;28;20048;-61
2023/01/12 03:52:17;;;;;;;24.23;4.10;;;8.30;99.90;;;;;;5082046;28;20373;-61
2023/01/12 03:54:45;;;;;;;25.13;3.83;;;8.10;99.90;;;;;;5088468;28;20073;-61
2023/01/12 03:57:12;;;;;;;20.95;4.03;;;8.30;99.90;;;;;;5102404;28;20036;-61
2023/01/12 03:59:39;;;;;;;21.75;3.50;;;8.00;99.90;;;;;;5099433;28;20073;-61
2023/01/12 04:02:05;;;;;;;26.40;3.72;;;8.40;99.90;;;;;;5101918;28;20051;-61
2023/01/12 04:04:30;;;;;;;21.10;3.45;;;8.40;99.90;;;;;;5100260;28;20044;-61
2023/01/12 04:06:57;;;;;;;23.58;3.70;;;8.40;99.90;;;;;;5101150;28;20121;-61
2023/01/12 04:09:24;;;;;;;18.02;3.60;;;8.40;99.90;;;;;;5101800;28;20043;-61
2023/01/12 04:12:09;;;;;;;24.48;4.30;;;8.10;99.90;;;;;;5099250;28;20044;-62
2023/01/12 04:14:38;;;;;;;17.52;3.63;;;8.30;99.90;;;;;;5083372;28;20086;-61
2023/01/12 04:17:04;;;;;;;23.55;4.38;;;8.30;99.90;;;;;;5064396;28;20051;-62
2023/01/12 04:19:30;;;;;;;23.60;3.95;;;8.10;99.90;;;;;;5101382;28;20052;-61
2023/01/12 04:24:40;;;;;;;20.48;3.83;;;8.50;99.90;;;;;;5098375;28;20182;-62
2023/01/12 04:27:06;;;;;;;30.42;4.00;;;8.10;99.90;;;;;;5083742;28;20056;-63
2023/01/12 04:29:31;;;;;;;22.63;3.58;;;8.10;99.90;;;;;;5098790;28;20075;-65
2023/01/12 04:31:57;;;;;;;19.95;3.22;;;8.40;99.90;;;;;;5101450;28;20480;-64
2023/01/12 04:34:23;;;;;;;18.35;3.38;;;8.40;99.90;;;;;;5099573;28;20132;-63
2023/01/12 04:36:48;;;;;;;12.88;2.38;;;8.30;99.90;;;;;;5100819;28;20048;-63
2023/01/12 04:39:14;;;;;;;17.02;2.92;;;8.30;99.90;;;;;;5101148;28;20043;-62
2023/01/12 04:41:40;;;;;;;11.45;2.45;;;8.20;99.90;;;;;;5098959;28;20055;-62
2023/01/12 04:44:06;;;;;;;10.48;2.00;;;8.40;99.90;;;;;;5100909;28;20036;-62
2023/01/12 04:46:32;;;;;;;16.45;2.30;;;8.10;99.90;;;;;;5079409;28;20670;-63
2023/01/12 04:48:57;;;;;;;13.27;2.25;;;8.00;99.90;;;;;;5101166;28;20074;-63
2023/01/12 04:51:24;;;;;;;11.48;2.15;;;8.00;99.90;;;;;;5098642;28;20040;-62
2023/01/12 04:53:50;;;;;;;13.95;2.20;;;8.10;99.90;;;;;;5098787;28;20047;-63
2023/01/12 04:56:17;;;;;;;8.35;1.98;;;7.90;99.90;;;;;;5080096;28;20052;-63
2023/01/12 04:58:42;;;;;;;12.55;2.05;;;7.90;99.90;;;;;;5078466;28;20032;-63
2023/01/12 05:01:14;;;;;;;11.82;2.15;;;8.10;99.90;;;;;;5080878;28;20068;-63
2023/01/12 05:03:40;;;;;;;9.20;1.90;;;8.00;99.90;;;;;;5077963;28;20075;-63
2023/01/12 05:06:06;;;;;;;8.25;1.75;;;8.10;99.90;;;;;;5080878;28;20035;-61
2023/01/12 05:11:16;;;;;;;9.93;2.25;;;8.10;99.90;;;;;;5063889;28;20064;-63
2023/01/12 05:13:42;;;;;;;11.65;2.35;;;7.90;99.90;;;;;;5062316;28;20067;-63
2023/01/12 05:16:14;;;;;;;10.05;1.67;;;7.90;99.90;;;;;;5059679;28;20033;-63
2023/01/12 05:18:44;;;;;;;12.88;2.47;;;8.00;99.90;;;;;;5080427;28;20051;-63
2023/01/12 05:21:10;;;;;;;13.57;1.77;;;7.90;99.90;;;;;;5078038;28;20053;-65
2023/01/12 05:23:36;;;;;;;9.25;2.00;;;7.90;99.90;;;;;;5080328;28;20052;-63
2023/01/12 05:26:04;;;;;;;11.10;1.92;;;7.80;99.90;;;;;;5078501;28;20080;-63
2023/01/12 05:28:30;;;;;;;11.93;2.20;;;7.80;99.90;;;;;;5079076;28;20048;-63
2023/01/12 05:31:19;;;;;;;15.55;2.03;;;7.90;99.90;;;;;;5080327;28;20040;-63
2023/01/12 05:33:45;;;;;;;6.63;2.00;;;8.10;99.90;;;;;;5077562;28;20052;-63
2023/01/12 05:36:14;;;;;;;9.15;2.05;;;7.80;99.90;;;;;;5080245;28;20378;-61
2023/01/12 05:38:39;;;;;;;6.25;1.55;;;8.20;99.90;;;;;;5078413;28;20032;-62
2023/01/12 05:41:08;;;;;;;6.78;2.40;;;7.90;99.90;;;;;;5079657;28;20041;-63
2023/01/12 05:43:49;;;;;;;9.65;1.90;;;8.10;99.90;;;;;;5079764;28;20103;-62
2023/01/12 05:46:16;;;;;;;9.82;2.25;;;8.10;99.90;;;;;;5077492;28;20079;-63
2023/01/12 05:48:42;;;;;;;9.35;2.28;;;7.90;99.90;;;;;;5080454;28;20041;-63
2023/01/12 05:51:09;;;;;;;6.78;1.85;;;7.80;99.90;;;;;;5077344;28;20538;-62
2023/01/12 05:53:35;;;;;;;6.55;2.22;;;7.80;99.90;;;;;;5079783;28;20052;-62
2023/01/12 05:56:24;;;;;;;7.20;2.17;;;8.20;99.90;;;;;;5078828;28;20053;-61
2023/01/12 05:58:51;;;;;;;6.07;2.15;;;8.20;99.90;;;;;;5081730;28;20032;-62
2023/01/12 06:01:17;;;;;;;6.68;2.22;;;7.90;99.90;;;;;;5083906;28;20051;-62
2023/01/12 06:03:47;;;;;;;7.03;2.10;;;7.80;99.90;;;;;;5081069;28;20040;-62
2023/01/12 06:06:13;;;;;;;5.88;1.80;;;8.10;99.90;;;;;;5084212;28;20056;-63
2023/01/12 06:08:38;;;;;;;5.38;1.88;;;7.80;99.90;;;;;;5082019;28;20029;-62
2023/01/12 06:11:04;;;;;;;5.05;1.70;;;8.00;99.90;;;;;;5065166;28;20055;-63
2023/01/12 06:16:15;;;;;;;3.97;1.67;;;7.90;99.90;;;;;;5081105;28;20051;-62
2023/01/12 06:18:41;;;;;;;9.73;1.70;;;8.20;99.90;;;;;;5094036;28;20084;-65
2023/01/12 06:21:08;;;;;;;3.63;1.33;;;7.90;99.90;;;;;;5101083;28;20043;-64
2023/01/12 06:23:33;;;;;;;3.95;1.45;;;8.40;99.90;;;;;;5104197;28;20054;-64
2023/01/12 06:26:01;;;;;;;6.93;1.75;;;8.40;99.90;;;;;;5102428;28;20044;-63
2023/01/12 06:28:27;;;;;;;4.13;1.10;;;8.10;99.90;;;;;;5102240;28;20051;-63
2023/01/12 06:30:57;;;;;;;3.90;1.50;;;8.00;99.90;;;;;;5103801;28;20047;-63
2023/01/12 06:33:24;;;;;;;5.32;1.33;;;8.10;99.90;;;;;;5082646;28;20097;-63
2023/01/12 06:35:49;;;;;;;5.47;1.50;;;8.30;99.90;;;;;;5103676;28;20040;-64
2023/01/12 06:38:15;;;;;;;6.03;1.40;;;8.60;99.90;;;;;;5082970;28;20079;-63
2023/01/12 06:40:41;;;;;;;3.72;1.30;;;8.70;99.90;;;;;;5103685;28;20769;-62
2023/01/12 06:43:06;;;;;;;5.20;1.92;;;8.50;99.90;;;;;;5098978;28;20055;-62
2023/01/12 06:45:32;;;;;;;5.00;1.60;;;8.20;99.90;;;;;;5097486;28;20196;-62
2023/01/12 06:47:58;;;;;;;4.03;1.45;;;8.60;99.90;;;;;;5099431;28;20051;-62
2023/01/12 06:50:24;;;;;;;4.32;1.25;;;8.30;99.90;;;;;;5096663;28;20396;-62
2023/01/12 06:52:51;;;;;;;4.93;1.40;;;8.40;99.90;;;;;;5099473;28;20609;-60
2023/01/12 06:55:17;;;;;;;6.53;1.70;;;9.00;99.90;;;;;;5096252;28;20055;-62
2023/01/12 06:57:43;;;;;;;6.70;1.80;;;9.10;99.90;;;;;;5099452;28;20519;-62
2023/01/12 07:00:12;;;;;;;8.13;2.60;;;9.10;99.90;;;;;;5097588;28;20318;-62
2023/01/12 07:02:37;;;;;;;10.25;3.20;;;8.90;99.90;;;;;;5098418;28;20074;-62
2023/01/12 07:05:03;;;;;;;10.25;3.25;;;9.30;99.90;;;;;;5099339;28;20032;-62
2023/01/12 07:07:29;;;;;;;11.25;3.88;;;9.20;99.90;;;;;;5095708;28;20059;-62
2023/01/12 07:09:55;;;;;;;22.42;5.10;;;9.30;99.90;;;;;;5098452;28;20053;-62
2023/01/12 07:12:21;;;;;;;23.88;5.50;;;9.50;99.90;;;;;;5095683;28;20224;-63
2023/01/12 07:14:46;;;;;;;21.02;4.60;;;8.90;99.90;;;;;;5099174;28;20090;-62
2023/01/12 07:17:12;;;;;;;23.90;4.15;;;8.90;99.90;;;;;;5097013;28;20047;-61
2023/01/12 07:19:37;;;;;;;21.38;4.93;;;9.70;99.90;;;;;;5097907;28;20044;-61
2023/01/12 07:22:03;;;;;;;21.02;4.00;;;9.00;99.90;;;;;;5098512;28;20048;-61
2023/01/12 07:24:29;;;;;;;25.17;3.70;;;9.80;99.90;;;;;;5077949;28;20066;-61
2023/01/12 07:26:57;;;;;;;19.25;4.07;;;9.90;99.90;;;;;;5080721;28;20047;-61
2023/01/12 07:29:23;;;;;;;22.27;3.75;;;9.90;99.90;;;;;;5096054;28;20056;-60
2023/01/12 07:31:48;;;;;;;23.35;4.68;;;9.40;99.90;;;;;;5098086;28;20066;-60
2023/01/12 07:34:14;;;;;;;21.25;3.72;;;9.60;99.90;;;;;;5096134;28;20376;-60
2023/01/12 07:36:41;;;;;;;21.95;4.03;;;9.40;99.90;;;;;;5098004;28;20051;-60
2023/01/12 07:39:07;;;;;;;22.75;4.00;;;9.40;99.90;;;;;;5079335;28;20044;-60
2023/01/12 07:44:18;;;;;;;25.58;5.05;;;10.00;99.90;;;;;;5082923;28;20081;-60
2023/01/12 07:46:44;;;;;;;23.00;4.47;;;9.70;99.90;;;;;;5095566;28;20448;-57
2023/01/12 07:49:09;;;;;;;18.42;3.50;;;9.80;99.90;;;;;;5098123;28;20094;-59
2023/01/12 07:51:35;;;;;;;22.15;3.63;;;9.70;99.90;;;;;;5096584;28;20040;-59
2023/01/12 07:54:01;;;;;;;17.98;3.85;;;10.20;99.90;;;;;;5093249;28;20162;-60
2023/01/12 07:56:26;;;;;;;17.90;2.72;;;10.20;99.90;;;;;;5077791;28;20481;-59
2023/01/12 07:58:52;;;;;;;18.85;3.05;;;10.00;99.90;;;;;;5075329;28;20048;-59
2023/01/12 08:01:18;;;;;;;19.77;3.70;;;9.90;99.90;;;;;;5059825;28;20084;-59
2023/01/12 08:03:43;;;;;;;22.67;4.65;;;10.10;99.90;;;;;;5075255;28;20045;-59
2023/01/12 08:06:09;;;;;;;15.90;2.88;;;9.80;99.90;;;;;;5077378;28;20048;-59
2023/01/12 08:08:35;;;;;;;21.05;4.25;;;10.20;99.90;;;;;;5041227;28;20048;-59
2023/01/12 08:11:06;;;;;;;25.38;5.18;;;9.80;99.90;;;;;;5077424;28;20041;-59
2023/01/12 08:13:32;;;;;;;18.80;3.58;;;10.30;99.90;;;;;;5077490;28;20032;-59
2023/01/12 08:16:05;;;;;;;21.67;4.05;;;9.80;99.90;;;;;;5056972;28;20048;-59
2023/01/12 08:18:47;;;;;;;16.05;3.20;;;10.10;99.90;;;;;;5077335;28;20041;-58
2023/01/12 08:21:16;;;;;;;;;;;10.30;99.90;;;;;;5078541;28;20032;-58
2023/01/12 08:23:48;;;;;;;20.85;3.47;;;10.30;99.90;;;;;;5086975;28;19969;-59
2023/01/12 08:26:23;;;;;;;16.95;3.15;;;10.00;99.90;;;;;;5083919;28;20108;-59
2023/01/12 08:28:55;;;;;;;15.98;3.90;;;10.10;99.90;;;;;;5085424;28;20044;-58
2023/01/12 08:31:23;;;;;;;18.67;2.72;;;10.30;99.90;;;;;;5093405;28;20047;-58
2023/01/12 08:33:51;;;;;;;21.45;3.20;;;10.30;99.90;;;;;;5094548;28;20048;-58
2023/01/12 08:36:18;;;;;;;18.60;2.72;;;9.90;99.90;;;;;;5097560;28;20052;-58
2023/01/12 08:38:44;;;;;;;16.98;2.78;;;10.10;99.90;;;;;;5095821;28;20048;-58
2023/01/12 08:44:05;;;;;;;12.98;2.63;;;10.00;99.90;;;;;;5096770;28;20109;-59
2023/01/12 08:46:33;;;;;;;14.23;2.72;;;10.40;99.90;;;;;;5094705;28;20122;-59
2023/01/12 08:49:00;;;;;;;12.82;2.70;;;10.40;99.90;;;;;;5097406;28;20067;-58
2023/01/12 08:51:26;;;;;;;19.08;3.22;;;10.20;99.90;;;;;;5094846;28;20104;-58
2023/01/12 08:53:51;;;;;;;14.25;2.50;;;10.10;99.90;;;;;;5094090;28;20048;-58
2023/01/12 08:56:17;;;;;;;15.27;2.50;;;10.10;99.90;;;;;;5058372;28;20115;-57
2023/01/12 08:58:43;;;;;;;13.30;2.50;;;10.50;99.90;;;;;;5056603;28;20566;-58
2023/01/12 09:01:12;;;;;;;15.77;2.50;;;10.10;99.90;;;;;;5076847;28;20036;-58
2023/01/12 09:03:39;;;;;;;18.73;3.10;;;10.30;99.90;;;;;;5073521;28;20101;-58
2023/01/12 09:06:15;;;;;;;19.35;2.75;;;10.10;99.90;;;;;;5076537;28;20082;-57
2023/01/12 09:08:41;;;;;;;15.93;2.40;;;10.40;99.90;;;;;;5074970;28;20345;-58
2023/01/12 09:11:09;;;;;;;15.63;2.30;;;10.00;99.90;;;;;;5075663;28;20067;-58
2023/01/12 09:13:36;;;;;;;16.23;2.72;;;10.40;99.90;;;;;;5076335;28;20073;-58
2023/01/12 09:16:07;;;;;;;15.25;3.03;;;10.30;99.90;;;;;;5073567;28;20044;-58
2023/01/12 09:18:33;;;;;;;16.85;3.72;;;10.30;99.90;;;;;;5075961;28;20688;-58
2023/01/12 09:21:04;;;;;;;15.43;2.72;;;10.40;99.90;;;;;;5073749;28;20047;-58
2023/01/12 09:23:30;;;;;;;10.00;2.33;;;10.10;99.90;;;;;;5076255;28;20438;-57
2023/01/12 09:25:55;;;;;;;11.82;2.08;;;10.50;99.90;;;;;;5074648;28;20166;-58
2023/01/12 09:28:21;;;;;;;11.48;2.20;;;10.20;99.90;;;;;;5075030;28;20045;-58
2023/01/12 09:30:47;;;;;;;15.85;2.80;;;10.10;99.90;;;;;;5076270;28;20079;-59
2023/01/12 09:33:12;;;;;;;18.55;2.83;;;10.50;99.90;;;;;;5073183;28;20392;-59
2023/01/12 09:35:38;;;;;;;12.77;2.88;;;10.20;99.90;;;;;;5076365;28;20093;-59
2023/01/12 09:38:04;;;;;;;15.82;2.50;;;10.10;99.90;;;;;;5055343;28;20067;-59
2023/01/12 09:40:29;;;;;;;23.98;3.38;;;10.40;99.90;;;;;;5076614;28;20033;-60
2023/01/12 09:48:27;;;;;;;14.88;2.47;;;10.10;99.90;;;;;;5076396;28;20205;-59
2023/01/12 09:51:21;;;;;;;15.07;2.70;;;10.50;99.90;;;;;;5041149;28;20064;-60
2023/01/12 09:53:47;;;;;;;12.15;2.78;;;10.60;99.90;;;;;;5077173;28;20084;-59
2023/01/12 09:56:35;;;;;;;16.73;2.28;;;10.60;99.90;;;;;;5077670;28;20441;-59
2023/01/12 09:59:07;;;;;;;15.38;3.15;;;10.70;99.90;;;;;;5093285;28;20056;-59
2023/01/12 10:01:36;;;;;;;12.65;2.80;;;10.50;99.90;;;;;;5096882;28;20059;-59
2023/01/12 10:04:03;;;;;;;13.05;2.70;;;10.60;99.90;;;;;;5093371;28;20601;-58
2023/01/12 10:06:30;;;;;;;18.77;3.40;;;10.50;99.90;;;;;;5095990;28;20046;-60
2023/01/12 10:08:58;;;;;;;18.20;3.38;;;10.50;99.90;;;;;;5095753;28;20097;-59
2023/01/12 10:11:32;;;;;;;11.63;2.30;;;10.20;99.90;;;;;;5094159;28;20044;-59
2023/01/12 10:14:12;;;;;;;12.25;2.08;;;10.20;99.90;;;;;;5096079;28;20177;-60
2023/01/12 10:16:57;;;;;;;12.05;2.30;;;10.30;99.90;;;;;;5093660;28;20496;-60
2023/01/12 10:19:49;;;;;;;14.95;2.33;;;10.50;99.90;;;;;;5095383;28;20053;-59
2023/01/12 10:22:37;;;;;;;16.88;2.45;;;10.20;99.90;;;;;;5096454;28;20469;-58
2023/01/12 10:25:18;;;;;;;14.35;2.53;;;10.30;99.90;;;;;;5092751;28;20173;-59
2023/01/12 10:27:47;;;;;;;15.15;2.28;;;10.40;99.90;;;;;;5096197;28;20059;-59
2023/01/12 10:30:27;;;;;;;14.05;2.17;;;10.30;99.90;;;;;;5059708;28;20052;-59
2023/01/12 10:32:52;;;;;;;13.23;2.28;;;10.50;99.90;;;;;;5093937;28;20044;-58
2023/01/12 10:35:22;;;;;;;7.72;1.30;;;10.50;99.90;;;;;;5088818;28;20046;-59
2023/01/12 10:37:53;;;;;;;12.90;1.98;;;10.30;99.90;;;;;;5081232;28;20422;-59
2023/01/12 10:40:24;;;;;;;16.50;2.95;;;10.40;99.90;;;;;;5086406;28;20071;-58
2023/01/12 10:43:18;;;;;;;9.93;2.08;;;10.40;99.90;;;;;;5085504;28;20051;-57
2023/01/12 10:46:20;;;;;;;12.63;2.22;;;10.40;99.90;;;;;;5097485;28;20040;-58
2023/01/12 10:48:51;;;;;;;12.63;1.90;;;10.70;99.90;;;;;;5099574;28;20055;-58
2023/01/12 10:51:28;;;;;;;18.40;2.95;;;10.80;99.90;;;;;;5096449;28;20100;-58
2023/01/12 10:54:15;;;;;;;11.70;2.78;;;10.70;99.90;;;;;;5095714;28;20144;-58
2023/01/12 10:56:52;;;;;;;21.10;2.47;;;10.80;99.90;;;;;;5079471;28;20041;-58
2023/01/12 10:59:20;;;;;;;8.98;2.28;;;10.70;99.90;;;;;;5078627;28;20044;-57
2023/01/12 11:01:50;;;;;;;11.05;1.95;;;10.70;99.90;;;;;;5082015;28;20408;-57
2023/01/12 11:04:23;;;;;;;13.27;2.30;;;10.60;99.90;;;;;;5062921;28;20040;-58
2023/01/12 11:07:07;;;;;;;18.73;2.97;;;10.40;99.90;;;;;;5081714;28;20068;-59
2023/01/12 11:09:33;;;;;;;13.23;2.78;;;10.60;99.90;;;;;;5082564;28;20055;-60
2023/01/12 11:12:01;;;;;;;15.38;2.08;;;10.30;99.90;;;;;;5061604;28;20037;-60
2023/01/12 11:14:36;;;;;;;13.55;2.17;;;10.20;99.90;;;;;;5082508;28;20070;-65
2023/01/12 11:17:38;;;;;;;14.38;2.65;;;10.50;99.90;;;;;;5080165;28;20036;-65
2023/01/12 11:20:14;;;;;;;10.23;2.08;;;10.40;99.90;;;;;;5079508;28;20052;-67
2023/01/12 11:22:43;;;;;;;12.73;1.92;;;10.10;99.90;;;;;;5082534;28;20040;-68
2023/01/12 11:25:14;;;;;;;16.75;2.55;;;9.80;99.90;;;;;;5079126;28;20081;-64
2023/01/12 11:27:45;;;;;;;17.42;3.08;;;10.30;99.90;;;;;;5082259;28;20041;-62
2023/01/12 11:30:44;;;;;;;17.88;2.55;;;9.80;99.90;;;;;;5081078;28;20036;-61
2023/01/12 11:33:13;;;;;;;16.80;3.35;;;10.50;99.90;;;;;;5082344;28;20099;-61
2023/01/12 11:35:40;;;;;;;19.75;2.67;;;10.70;99.90;;;;;;5102510;28;20051;-61
2023/01/12 11:38:17;;;;;;;17.05;2.55;;;10.30;99.90;;;;;;5099678;28;20118;-61
2023/01/12 11:40:44;;;;;;;11.90;2.55;;;10.80;99.90;;;;;;5083757;28;20040;-59
2023/01/12 11:46:31;;;;;;;16.38;2.70;;;10.40;99.90;;;;;;5098966;28;20209;-60
2023/01/12 11:49:28;;;;;;;20.35;3.00;;;10.90;99.90;;;;;;5102377;28;20067;-60
2023/01/12 11:51:56;;;;;;;15.93;2.45;;;10.50;99.90;;;;;;5101786;28;20044;-59
2023/01/12 11:54:24;;;;;;;18.13;2.60;;;10.60;99.90;;;;;;5099047;28;20048;-58
2023/01/12 11:57:02;;;;;;;14.50;2.88;;;11.10;99.90;;;;;;5083826;28;20058;-59
2023/01/12 11:59:52;;;;;;;11.10;2.08;;;10.70;99.90;;;;;;5099180;28;20044;-59
2023/01/12 12:02:40;;;;;;;11.98;2.17;;;10.70;99.90;;;;;;5101401;28;20071;-59
2023/01/12 12:05:08;;;;;;;11.55;1.92;;;10.90;99.90;;;;;;5101822;28;20036;-59
2023/01/12 12:07:40;;;;;;;12.63;2.22;;;11.20;99.90;;;;;;5099189;28;20050;-59
2023/01/12 12:10:24;;;;;;;15.52;2.20;;;11.30;99.90;;;;;;5101865;28;20036;-59
2023/01/12 12:13:08;;;;;;;12.88;1.90;;;11.00;99.90;;;;;;5099565;28;20478;-59
2023/01/12 12:16:00;;;;;;;13.07;2.25;;;11.30;99.90;;;;;;5099587;28;20520;-59
2023/01/12 12:19:06;;;;;;;15.40;2.53;;;11.00;99.90;;;;;;5096437;28;20056;-59
2023/01/12 12:21:50;;;;;;;11.93;1.50;;;10.90;99.90;;;;;;5100011;28;20074;-58
2023/01/12 12:24:28;;;;;;;11.23;1.75;;;11.00;99.90;;;;;;5099308;28;20097;-58
2023/01/12 12:27:00;;;;;;;15.10;3.28;;;11.20;99.90;;;;;;5101253;28;20060;-59
2023/01/12 12:29:39;;;;;;;12.27;2.20;;;11.10;99.90;;;;;;5098719;28;20035;-58
2023/01/12 12:32:10;;;;;;;13.88;1.85;;;10.90;99.90;;;;;;5101252;28;20063;-58
2023/01/12 12:34:59;;;;;;;15.00;2.72;;;10.90;99.90;;;;;;5100563;28;20047;-58
2023/01/12 12:37:49;;;;;;;15.88;2.53;;;11.00;99.90;;;;;;5098447;28;20044;-58
2023/01/12 12:40:24;;;;;;;10.57;2.00;;;11.10;99.90;;;;;;5101145;28;20047;-58
2023/01/12 12:46:19;;;;;;;12.02;1.63;;;11.00;99.90;;;;;;5098168;28;20140;-58
2023/01/12 12:49:07;;;;;;;17.35;3.20;;;10.90;99.90;;;;;;5100825;28;20119;-59
2023/01/12 12:51:34;;;;;;;17.42;2.65;;;11.00;99.90;;;;;;5099493;28;20072;-58
2023/01/12 12:54:05;;;;;;;19.10;2.40;;;10.90;99.90;;;;;;5096010;28;20044;-58
2023/01/12 12:56:34;;;;;;;20.77;3.53;;;10.80;99.90;;;;;;5080663;28;20106;-59
2023/01/12 12:59:00;;;;;;;15.38;2.28;;;10.60;99.90;;;;;;5077745;28;20146;-58
2023/01/12 13:01:29;;;;;;;19.27;3.00;;;11.00;99.90;;;;;;5088677;28;20039;-58
2023/01/12 13:03:57;;;;;;;15.10;2.47;;;10.90;99.90;;;;;;5087501;28;20032;-58
2023/01/12 13:06:47;;;;;;;15.40;2.38;;;10.90;99.90;;;;;;5083135;28;20530;-58
2023/01/12 13:09:15;;;;;;;14.88;2.45;;;11.00;99.90;;;;;;5080599;28;20102;-58
2023/01/12 13:11:56;;;;;;;15.40;2.75;;;10.80;99.90;;;;;;5077304;28;20041;-57
2023/01/12 13:14:36;;;;;;;17.17;2.22;;;10.80;99.90;;;;;;5080673;28;20124;-58
2023/01/12 13:17:25;;;;;;;16.58;2.08;;;10.90;99.90;;;;;;5078166;28;20105;-57
2023/01/12 13:20:00;;;;;;;15.85;2.40;;;11.00;99.90;;;;;;5078256;28;20044;-58
2023/01/12 13:22:29;;;;;;;11.57;2.30;;;11.00;99.90;;;;;;5079983;28;20068;-59
2023/01/12 13:24:57;;;;;;;11.23;2.15;;;10.90;99.90;;;;;;5084327;28;20059;-59
2023/01/12 13:27:45;;;;;;;13.15;2.50;;;10.70;99.90;;;;;;5082484;28;20048;-59
2023/01/12 13:30:28;;;;;;;24.35;3.20;;;10.70;99.90;;;;;;5099333;28;20094;-59
2023/01/12 13:33:41;;;;;;;14.70;2.50;;;10.90;99.90;;;;;;5098064;28;20071;-60
2023/01/12 13:36:08;;;;;;;23.77;2.63;;;10.90;99.90;;;;;;5078485;28;20052;-59
2023/01/12 13:38:42;;;;;;;17.95;2.42;;;10.80;99.90;;;;;;5080462;28;20056;-59
2023/01/12 13:41:14;;;;;;;17.98;3.03;;;10.90;99.90;;;;;;5098948;28;20047;-59
2023/01/12 13:43:47;;;;;;;16.58;3.35;;;10.80;99.90;;;;;;5100182;28;20048;-59
2023/01/12 13:46:17;;;;;;;15.82;3.42;;;11.00;99.90;;;;;;5097412;28;20284;-59
2023/01/12 13:48:48;;;;;;;15.18;2.75;;;11.00;99.90;;;;;;5100286;28;20046;-59
2023/01/12 13:51:35;;;;;;;13.77;2.47;;;10.70;99.90;;;;;;5098241;28;20566;-59